Arleta, California
Current Conditions -  °F | °C
As of 1:53 AM on Saturday 22 Nov 2014 (Local Time) from KBUR Reporting Station
Clear Clear  
Wind Chill: 53°   Ceiling: Unl
Heat Index: 53°   Visibility: 10mi
Dew Point: 38°   Wind: 3mph
Humidity: 57%   Direction: 340°NNW
Pressure: 30.07"   Gusts: NA
Location:  34.2574°N, 118.255°W
Report Text: KBUR 220953Z 34003KT 10SM CLR 12/03 A3007 RMK AO2 SLP173 T01170033
Loading
Personal Weather Stations






























Interactive Weather Map New forecast layout! Learn more

10-Day Weather Forecast

Advertisements
Track Severe Weather on mobile